createdAt,value
2018-11-07T00:01:45.577Z,59.33
2018-11-07T00:07:14.046Z,59.99
2018-11-07T00:09:49.527Z,60.05
2018-11-07T00:12:25.591Z,60.01
2018-11-07T00:15:01.708Z,59.97
2018-11-07T00:17:37.498Z,60.31
2018-11-07T00:20:13.026Z,60.46
2018-11-07T00:22:48.046Z,60.68
2018-11-07T00:25:23.353Z,60.66
2018-11-07T00:27:57.997Z,60.70
2018-11-07T00:30:32.705Z,60.67
2018-11-07T00:35:59.305Z,60.66
2018-11-07T00:38:34.994Z,60.97
2018-11-07T00:41:11.580Z,60.86
2018-11-07T00:43:48.530Z,60.53
2018-11-07T00:49:18.419Z,60.72
2018-11-07T00:51:53.444Z,60.68
2018-11-07T00:54:28.414Z,60.90
2018-11-07T00:57:03.554Z,60.68
2018-11-07T00:59:38.794Z,60.97
2018-11-07T01:02:16.643Z,60.99
2018-11-07T01:04:51.334Z,60.98
2018-11-07T01:07:27.872Z,60.84
2018-11-07T01:10:02.606Z,61.00
2018-11-07T01:12:39.062Z,61.04
2018-11-07T01:15:14.686Z,61.08
2018-11-07T01:17:50.360Z,61.43
2018-11-07T01:20:25.238Z,61.45
2018-11-07T01:23:00.133Z,61.90
2018-11-07T01:25:35.745Z,61.68
2018-11-07T01:28:10.772Z,61.33
2018-11-07T01:30:46.388Z,61.13
2018-11-07T01:33:21.813Z,61.24
2018-11-07T01:35:56.677Z,61.57
2018-11-07T01:38:31.924Z,61.61
2018-11-07T01:41:08.053Z,61.82
2018-11-07T01:43:43.461Z,61.47
2018-11-07T01:49:02.570Z,61.41
2018-11-07T01:51:38.987Z,61.57
2018-11-07T01:54:13.487Z,61.23
2018-11-07T01:56:49.228Z,61.50
2018-11-07T01:59:24.671Z,61.38
2018-11-07T02:02:00.723Z,61.61
2018-11-07T02:04:35.898Z,61.71
2018-11-07T02:07:11.007Z,61.97
2018-11-07T02:09:46.103Z,61.85
2018-11-07T02:12:22.929Z,62.11
2018-11-07T02:14:57.929Z,62.22
2018-11-07T02:17:33.567Z,62.38
2018-11-07T02:20:09.866Z,62.41
2018-11-07T02:22:47.281Z,62.46
2018-11-07T02:25:22.417Z,62.52
2018-11-07T02:27:58.259Z,62.58
2018-11-07T02:30:32.526Z,62.92
2018-11-07T02:33:07.523Z,63.06
2018-11-07T02:35:42.706Z,62.95
2018-11-07T02:38:18.291Z,62.80
2018-11-07T02:40:52.624Z,62.46
2018-11-07T02:43:28.151Z,62.65
2018-11-07T02:46:02.535Z,62.76
2018-11-07T02:48:38.332Z,62.93
2018-11-07T02:51:13.154Z,62.93
2018-11-07T02:53:47.881Z,62.68
2018-11-07T02:56:22.763Z,63.02
2018-11-07T02:58:57.610Z,62.69
2018-11-07T03:01:31.996Z,62.79
2018-11-07T03:04:07.236Z,62.97
2018-11-07T03:06:43.075Z,62.86
2018-11-07T03:09:17.784Z,63.26
2018-11-07T03:11:52.713Z,62.99
2018-11-07T03:14:28.615Z,62.79
2018-11-07T03:17:04.807Z,62.62
2018-11-07T03:19:39.960Z,62.53
2018-11-07T03:22:14.759Z,62.75
2018-11-07T03:24:49.398Z,62.61
2018-11-07T03:27:25.414Z,62.69
2018-11-07T03:30:00.843Z,62.38
2018-11-07T03:32:36.387Z,62.45
2018-11-07T03:38:18.360Z,62.13
2018-11-07T03:40:53.715Z,62.06
2018-11-07T03:43:28.565Z,62.12
2018-11-07T03:46:03.032Z,62.27
2018-11-07T03:48:37.434Z,62.08
2018-11-07T03:51:11.733Z,62.04
2018-11-07T03:53:47.278Z,61.81
2018-11-07T03:56:22.136Z,61.87
2018-11-07T03:58:56.832Z,62.00
2018-11-07T04:01:32.415Z,61.90
2018-11-07T04:04:07.605Z,61.86
2018-11-07T04:06:43.072Z,61.77
2018-11-07T04:09:18.439Z,62.24
2018-11-07T04:11:53.620Z,62.09
2018-11-07T04:14:29.119Z,61.88
2018-11-07T04:17:04.136Z,61.70
2018-11-07T04:19:39.501Z,61.59
2018-11-07T04:22:14.199Z,61.74
2018-11-07T04:24:48.687Z,61.46
2018-11-07T04:27:23.999Z,61.63
2018-11-07T04:29:59.437Z,61.50
2018-11-07T04:32:34.227Z,61.47
2018-11-07T04:35:10.411Z,61.41
2018-11-07T04:37:45.424Z,61.22
2018-11-07T04:40:20.419Z,61.23
2018-11-07T04:42:55.248Z,61.11
2018-11-07T04:45:31.345Z,60.90
2018-11-07T04:48:06.998Z,60.96
2018-11-07T04:50:42.457Z,61.02
2018-11-07T04:53:17.954Z,61.09
2018-11-07T04:55:52.637Z,61.05
2018-11-07T04:58:27.589Z,60.99
2018-11-07T05:01:02.217Z,61.01
2018-11-07T05:03:38.248Z,61.19
2018-11-07T05:08:55.538Z,61.25
2018-11-07T05:11:31.559Z,61.00
2018-11-07T05:14:06.696Z,61.06
2018-11-07T05:16:42.397Z,61.08
2018-11-07T05:19:16.744Z,61.06
2018-11-07T05:21:51.036Z,61.20
2018-11-07T05:24:26.626Z,61.51
2018-11-07T05:27:02.120Z,61.27
2018-11-07T05:29:37.039Z,61.33
2018-11-07T05:32:12.066Z,61.40
2018-11-07T05:34:47.606Z,61.39
2018-11-07T05:37:22.527Z,61.37
2018-11-07T05:39:57.841Z,61.74
2018-11-07T05:42:32.559Z,61.44
2018-11-07T05:45:08.569Z,61.46
2018-11-07T05:47:44.052Z,61.78
2018-11-07T05:50:19.940Z,61.75
2018-11-07T05:52:55.462Z,61.87
2018-11-07T05:55:30.603Z,62.08
2018-11-07T05:58:05.923Z,62.42
2018-11-07T06:00:41.951Z,62.49
2018-11-07T06:03:16.848Z,62.48
2018-11-07T06:05:51.907Z,62.38
2018-11-07T06:08:27.535Z,62.38
2018-11-07T06:11:03.562Z,62.56
2018-11-07T06:13:38.886Z,62.36
2018-11-07T06:16:13.940Z,62.26
2018-11-07T06:18:49.835Z,62.55
2018-11-07T06:21:24.358Z,62.42
2018-11-07T06:24:00.180Z,62.52
2018-11-07T06:26:35.901Z,62.68
2018-11-07T06:29:10.958Z,62.80
2018-11-07T06:31:46.418Z,62.72
2018-11-07T06:34:21.417Z,62.86
2018-11-07T06:39:56.472Z,62.99
2018-11-07T06:42:32.789Z,62.96
2018-11-07T06:47:49.935Z,62.79
2018-11-07T06:50:24.425Z,62.40
2018-11-07T06:53:00.371Z,62.59
2018-11-07T06:55:36.107Z,62.54
2018-11-07T07:00:53.274Z,62.08
2018-11-07T07:03:27.955Z,62.07
2018-11-07T07:06:03.588Z,62.23
2018-11-07T07:08:38.494Z,61.67
2018-11-07T07:11:13.343Z,61.58
2018-11-07T07:13:47.899Z,61.53
2018-11-07T07:16:24.111Z,61.42
2018-11-07T07:19:00.647Z,61.28
2018-11-07T07:21:36.089Z,61.30
2018-11-07T07:24:10.941Z,61.31
2018-11-07T07:26:45.623Z,61.19
2018-11-07T07:29:20.815Z,61.23
2018-11-07T07:31:57.803Z,61.01
2018-11-07T07:34:34.024Z,60.92
2018-11-07T07:39:56.601Z,60.37
2018-11-07T07:42:31.437Z,60.21
2018-11-07T07:45:06.610Z,60.00
2018-11-07T07:47:42.876Z,59.86
2018-11-07T07:50:19.962Z,59.77
2018-11-07T07:52:55.468Z,59.65
2018-11-07T07:55:30.951Z,58.90
2018-11-07T07:58:06.436Z,57.73
2018-11-07T08:00:41.367Z,57.06
2018-11-07T08:03:16.467Z,56.09
2018-11-07T08:05:51.908Z,55.50
2018-11-07T08:08:27.023Z,54.78
2018-11-07T08:11:02.361Z,54.15
2018-11-07T08:13:37.193Z,53.06
2018-11-07T08:16:12.522Z,51.99
2018-11-07T08:18:47.212Z,50.35
2018-11-07T08:21:21.503Z,49.72
2018-11-07T08:23:56.170Z,48.47
2018-11-07T08:29:42.719Z,46.51
2018-11-07T08:32:17.455Z,45.62
2018-11-07T08:38:06.525Z,43.46
2018-11-07T08:40:41.929Z,43.43
2018-11-07T08:43:16.872Z,42.70
2018-11-07T08:49:11.190Z,40.54
2018-11-07T08:51:47.051Z,40.34
2018-11-07T08:54:23.714Z,39.59
2018-11-07T08:56:59.945Z,38.71
2018-11-07T09:02:20.058Z,37.94
2018-11-07T09:04:56.157Z,37.41
2018-11-07T09:07:30.885Z,36.85
2018-11-07T09:10:05.569Z,36.33
2018-11-07T09:12:42.234Z,35.64
2018-11-07T09:15:19.555Z,35.13
2018-11-07T09:17:54.171Z,34.87
2018-11-07T09:20:29.153Z,34.60
2018-11-07T09:23:03.732Z,33.97
2018-11-07T09:25:38.651Z,33.69
2018-11-07T09:28:14.135Z,33.30
2018-11-07T09:30:49.164Z,32.79
2018-11-07T09:41:53.103Z,32.51
2018-11-07T09:44:29.588Z,32.15
2018-11-07T09:47:04.156Z,32.00
2018-11-07T09:49:41.010Z,31.83
2018-11-07T09:52:16.118Z,31.44
2018-11-07T09:54:51.093Z,31.35
2018-11-07T09:57:27.423Z,30.92
2018-11-07T10:00:02.646Z,30.45
2018-11-07T10:02:37.366Z,30.15
2018-11-07T10:05:12.830Z,30.12
2018-11-07T10:07:47.812Z,30.08
2018-11-07T10:10:24.991Z,29.58
2018-11-07T10:18:31.632Z,29.36
2018-11-07T10:21:07.754Z,29.23
2018-11-07T10:23:42.874Z,28.90
2018-11-07T10:26:17.701Z,28.83
2018-11-07T10:28:53.152Z,28.61
2018-11-07T10:31:28.040Z,28.83
2018-11-07T10:34:03.086Z,28.78
2018-11-07T10:36:39.141Z,28.79
2018-11-07T10:39:15.213Z,28.49
2018-11-07T10:41:50.890Z,28.08
2018-11-07T10:44:25.867Z,28.18
2018-11-07T10:47:00.071Z,27.97
2018-11-07T10:52:31.714Z,27.86
2018-11-07T10:55:07.119Z,28.11
2018-11-07T10:57:43.209Z,28.05
2018-11-07T11:00:37.614Z,27.68
2018-11-07T11:09:19.710Z,27.37
2018-11-07T11:11:54.239Z,27.58
2018-11-07T11:14:29.274Z,27.34
2018-11-07T11:19:39.704Z,27.31
2018-11-07T11:22:15.112Z,27.11
2018-11-07T11:24:50.986Z,26.98
2018-11-07T11:27:27.469Z,27.11
2018-11-07T11:30:02.723Z,27.30
2018-11-07T11:32:38.645Z,27.11
2018-11-07T11:35:14.163Z,26.92
2018-11-07T11:37:49.489Z,26.76
2018-11-07T11:40:24.187Z,26.71
2018-11-07T11:42:59.247Z,26.55
2018-11-07T11:45:33.946Z,26.39
2018-11-07T11:48:09.253Z,26.46
2018-11-07T11:53:35.541Z,26.12
2018-11-07T11:56:11.128Z,26.08
2018-11-07T12:01:33.318Z,25.62
2018-11-07T12:04:09.791Z,25.38
2018-11-07T12:06:45.414Z,25.25
2018-11-07T12:12:03.853Z,25.15
2018-11-07T12:14:39.965Z,25.46
2018-11-07T12:17:16.063Z,25.45
2018-11-07T12:19:53.008Z,25.79
2018-11-07T12:22:30.106Z,25.82
2018-11-07T12:25:05.435Z,25.61
2018-11-07T12:27:41.650Z,25.79
2018-11-07T12:33:08.066Z,26.62
2018-11-07T12:35:43.571Z,26.73
2018-11-07T12:38:19.247Z,27.20
2018-11-07T12:40:54.662Z,28.17
2018-11-07T12:43:30.572Z,28.51
2018-11-07T12:46:06.152Z,28.72
2018-11-07T12:48:44.091Z,29.15
2018-11-07T12:54:07.802Z,28.65
2018-11-07T12:56:42.703Z,28.39
2018-11-07T12:59:17.523Z,27.89
2018-11-07T13:01:52.374Z,27.93
2018-11-07T13:04:26.827Z,27.91
2018-11-07T13:07:02.084Z,28.40
2018-11-07T13:09:37.314Z,28.34
2018-11-07T13:12:12.962Z,28.53
2018-11-07T13:14:49.226Z,28.36
2018-11-07T13:20:07.515Z,29.77
2018-11-07T13:22:42.142Z,29.77
2018-11-07T13:28:01.108Z,29.92
2018-11-07T13:30:35.947Z,30.23
2018-11-07T13:33:11.393Z,30.65
2018-11-07T13:35:46.077Z,30.84
2018-11-07T13:38:21.016Z,31.46
2018-11-07T13:40:55.446Z,32.06
2018-11-07T13:43:30.570Z,32.12
2018-11-07T13:46:05.124Z,32.72
2018-11-07T13:48:42.585Z,32.81
2018-11-07T13:51:19.153Z,32.60
2018-11-07T13:56:35.462Z,32.37
2018-11-07T13:59:10.310Z,32.34
2018-11-07T14:01:45.789Z,32.57
2018-11-07T14:07:02.596Z,32.25
2018-11-07T14:12:20.179Z,32.12
2018-11-07T14:14:54.651Z,32.13
2018-11-07T14:17:32.023Z,32.28
2018-11-07T14:20:06.483Z,32.72
2018-11-07T14:22:42.046Z,33.11
2018-11-07T14:25:18.429Z,33.66
2018-11-07T14:27:54.076Z,34.25
2018-11-07T14:30:30.070Z,34.50
2018-11-07T14:33:05.595Z,34.66
2018-11-07T14:35:40.635Z,34.90
2018-11-07T14:38:16.148Z,35.09
2018-11-07T14:40:53.664Z,35.47
2018-11-07T14:43:28.778Z,36.18
2018-11-07T14:46:14.068Z,36.64
2018-11-07T14:49:03.064Z,37.50
2018-11-07T14:51:42.000Z,37.88
2018-11-07T14:54:16.685Z,38.18
2018-11-07T14:56:53.065Z,38.73
2018-11-07T14:59:28.769Z,38.73
2018-11-07T15:02:03.485Z,38.87
2018-11-07T15:04:39.757Z,39.62
2018-11-07T15:07:14.729Z,39.87
2018-11-07T15:09:51.543Z,40.72
2018-11-07T15:12:26.850Z,40.79
2018-11-07T15:15:03.886Z,41.43
2018-11-07T15:17:38.450Z,41.35
2018-11-07T15:23:00.589Z,42.24
2018-11-07T15:25:35.704Z,42.46
2018-11-07T15:28:09.939Z,42.89
2018-11-07T15:30:45.859Z,43.19
2018-11-07T15:33:24.179Z,43.13
2018-11-07T15:35:59.757Z,43.43
2018-11-07T15:38:35.190Z,43.48
2018-11-07T15:41:10.739Z,43.77
2018-11-07T15:43:45.415Z,43.52
2018-11-07T15:49:00.263Z,43.90
2018-11-07T15:51:40.551Z,44.15
2018-11-07T15:54:16.146Z,44.16
2018-11-07T15:56:50.639Z,44.55
2018-11-07T15:59:25.316Z,44.67
2018-11-07T16:01:59.658Z,45.33
2018-11-07T16:04:34.438Z,45.35
2018-11-07T16:07:10.188Z,45.29
2018-11-07T16:09:47.030Z,45.82
2018-11-07T16:12:22.191Z,46.35
2018-11-07T16:17:43.217Z,46.54
2018-11-07T16:20:20.655Z,46.53
2018-11-07T16:22:56.692Z,46.88
2018-11-07T16:25:32.586Z,46.78
2018-11-07T16:28:07.541Z,47.21
2018-11-07T16:30:42.532Z,47.33
2018-11-07T16:33:20.011Z,47.59
2018-11-07T16:35:56.598Z,47.85
2018-11-07T16:41:39.004Z,49.59
2018-11-07T16:44:14.089Z,49.57
2018-11-07T16:46:48.427Z,49.78
2018-11-07T16:49:22.689Z,50.05
2018-11-07T16:51:57.978Z,50.55
2018-11-07T16:54:33.747Z,51.95
2018-11-07T16:57:11.696Z,52.49
2018-11-07T16:59:46.526Z,53.43
2018-11-07T17:02:22.395Z,53.92
2018-11-07T17:04:57.181Z,53.99
2018-11-07T17:07:33.005Z,55.18
2018-11-07T17:10:10.574Z,55.63
2018-11-07T17:12:45.658Z,56.04
2018-11-07T17:18:04.400Z,56.20
2018-11-07T17:20:40.452Z,56.40
2018-11-07T17:23:18.530Z,57.19
2018-11-07T17:25:53.062Z,57.43
2018-11-07T17:28:27.933Z,57.10
2018-11-07T17:31:02.578Z,57.18
2018-11-07T17:33:37.597Z,57.73
2018-11-07T17:36:14.158Z,58.23
2018-11-07T17:38:50.491Z,58.22
2018-11-07T17:41:26.582Z,58.27
2018-11-07T17:44:02.052Z,58.88
2018-11-07T17:46:37.528Z,58.87
2018-11-07T17:49:12.144Z,58.57
2018-11-07T17:54:33.525Z,58.82
2018-11-07T17:57:09.940Z,59.23
2018-11-07T18:02:34.047Z,59.46
2018-11-07T18:05:12.721Z,59.49
2018-11-07T18:07:48.048Z,59.62
2018-11-07T18:10:26.146Z,59.87
2018-11-07T18:15:45.990Z,58.92
2018-11-07T18:18:24.726Z,59.08
2018-11-07T18:23:44.643Z,58.61
2018-11-07T18:26:19.953Z,58.60
2018-11-07T18:28:55.810Z,58.85
2018-11-07T18:31:31.525Z,58.80
2018-11-07T18:34:06.487Z,58.74
2018-11-07T18:36:44.148Z,58.13
2018-11-07T18:39:21.695Z,57.87
2018-11-07T18:41:57.095Z,58.42
2018-11-07T18:44:35.389Z,58.51
2018-11-07T18:47:09.645Z,58.81
2018-11-07T18:49:45.533Z,58.65
2018-11-07T18:52:21.173Z,58.21
2018-11-07T18:54:57.125Z,58.65
2018-11-07T18:57:31.232Z,58.77
2018-11-07T19:00:08.329Z,58.84
2018-11-07T19:05:27.870Z,58.72
2018-11-07T19:08:03.015Z,58.48
2018-11-07T19:10:38.354Z,58.73
2018-11-07T19:13:15.138Z,58.55
2018-11-07T19:15:50.858Z,58.82
2018-11-07T19:18:29.680Z,59.19
2018-11-07T19:23:44.878Z,58.87
2018-11-07T19:26:22.252Z,59.11
2018-11-07T19:28:57.198Z,59.43
2018-11-07T19:31:32.469Z,59.11
2018-11-07T19:34:07.758Z,59.56
2018-11-07T19:36:46.135Z,59.47
2018-11-07T19:39:24.553Z,59.73
2018-11-07T19:41:59.294Z,59.61
2018-11-07T19:44:35.933Z,59.65
2018-11-07T19:47:10.615Z,59.51
2018-11-07T19:49:45.958Z,59.96
2018-11-07T19:55:04.633Z,59.98
2018-11-07T19:57:40.190Z,60.19
2018-11-07T20:00:16.013Z,60.07
2018-11-07T20:02:50.726Z,60.22
2018-11-07T20:05:25.101Z,60.41
2018-11-07T20:08:00.083Z,60.95
2018-11-07T20:13:15.156Z,61.20
2018-11-07T20:15:49.991Z,60.79
2018-11-07T20:18:24.373Z,60.49
2018-11-07T20:21:00.305Z,60.53
2018-11-07T20:23:38.798Z,60.46
2018-11-07T20:26:12.757Z,60.43
2018-11-07T20:28:49.939Z,60.49
2018-11-07T20:31:25.150Z,60.83
2018-11-07T20:33:59.573Z,61.01
2018-11-07T20:36:34.057Z,60.79
2018-11-07T20:39:12.438Z,61.16
2018-11-07T20:41:48.034Z,61.09
2018-11-07T20:44:23.104Z,60.65
2018-11-07T20:46:58.175Z,61.09
2018-11-07T20:49:32.644Z,60.88
2018-11-07T20:52:07.642Z,60.61
2018-11-07T20:57:50.395Z,60.83
2018-11-07T21:00:25.004Z,60.46
2018-11-07T21:02:59.824Z,60.65
2018-11-07T21:05:36.407Z,60.72
2018-11-07T21:08:13.562Z,60.87
2018-11-07T21:10:48.936Z,61.30
2018-11-07T21:13:24.011Z,61.11
2018-11-07T21:15:59.396Z,61.32
2018-11-07T21:21:17.913Z,61.26
2018-11-07T21:23:53.835Z,61.53
2018-11-07T21:26:28.687Z,61.51
2018-11-07T21:29:03.474Z,61.34
2018-11-07T21:31:40.498Z,61.38
2018-11-07T21:34:16.107Z,61.68
2018-11-07T21:36:53.737Z,61.89
2018-11-07T21:39:29.615Z,62.16
2018-11-07T21:42:05.238Z,62.11
2018-11-07T21:44:41.598Z,61.83
2018-11-07T21:47:16.286Z,62.04
2018-11-07T21:49:52.356Z,62.33
2018-11-07T21:57:56.577Z,62.41
2018-11-07T22:00:31.238Z,62.33
2018-11-07T22:03:07.673Z,62.55
2018-11-07T22:05:42.944Z,62.99
2018-11-07T22:11:13.365Z,63.13
2018-11-07T22:13:48.443Z,62.96
2018-11-07T22:16:23.356Z,63.33
2018-11-07T22:18:58.620Z,63.35
2018-11-07T22:21:39.247Z,63.55
2018-11-07T22:24:15.590Z,63.29
2018-11-07T22:26:51.603Z,63.89
2018-11-07T22:32:11.800Z,63.78
2018-11-07T22:34:46.929Z,64.02
2018-11-07T22:37:21.895Z,64.01
2018-11-07T22:39:57.734Z,64.37
2018-11-07T22:42:35.801Z,64.49
2018-11-07T22:45:12.207Z,64.58
2018-11-07T22:47:47.639Z,64.46
2018-11-07T22:50:22.448Z,64.41
2018-11-07T22:52:57.163Z,64.16
2018-11-07T22:55:33.648Z,64.56
2018-11-07T22:58:08.825Z,64.16
2018-11-07T23:01:01.949Z,64.23
2018-11-07T23:03:37.829Z,64.29
2018-11-07T23:06:12.027Z,64.31
2018-11-07T23:11:29.890Z,63.99
2018-11-07T23:14:05.755Z,64.06
2018-11-07T23:16:40.835Z,64.08
2018-11-07T23:19:17.356Z,63.96
2018-11-07T23:21:55.347Z,64.17
2018-11-07T23:24:30.136Z,64.35
2018-11-07T23:27:05.823Z,64.50
2018-11-07T23:29:42.365Z,64.64
2018-11-07T23:32:17.141Z,64.80
2018-11-07T23:34:52.183Z,65.04
2018-11-07T23:40:10.986Z,64.70
2018-11-07T23:42:46.901Z,64.36
2018-11-07T23:45:21.876Z,64.67
2018-11-07T23:47:58.055Z,64.54
2018-11-07T23:50:32.641Z,64.39
2018-11-07T23:53:08.706Z,64.64
2018-11-07T23:55:43.312Z,64.84
2018-11-07T23:58:18.020Z,65.13
